createdAt,value
2019-06-08T00:01:02.259Z,100714.19
2019-06-08T00:06:05.482Z,100678.08
2019-06-08T00:11:07.996Z,100650.13
2019-06-08T00:16:11.650Z,100648.09
2019-06-08T00:21:15.531Z,100647.58
2019-06-08T00:26:18.579Z,100641.44
2019-06-08T00:31:21.995Z,100713.95
2019-06-08T00:36:25.683Z,100756.83
2019-06-08T00:41:28.876Z,100772.65
2019-06-08T00:46:32.113Z,100785.92
2019-06-08T00:51:35.335Z,100790.39
2019-06-08T00:56:38.513Z,100779.95
2019-06-08T01:01:41.796Z,100788.50
2019-06-08T01:06:45.387Z,100800.29
2019-06-08T01:11:48.633Z,100804.62
2019-06-08T01:16:51.918Z,100792.41
2019-06-08T01:21:55.194Z,100779.27
2019-06-08T01:26:58.543Z,100805.46
2019-06-08T01:32:02.146Z,100815.92
2019-06-08T01:37:05.723Z,100786.80
2019-06-08T01:42:09.326Z,100743.34
2019-06-08T01:47:11.957Z,100748.90
2019-06-08T01:52:15.317Z,100776.48
2019-06-08T01:57:18.288Z,100772.08
2019-06-08T02:02:21.222Z,100741.65
2019-06-08T02:07:24.430Z,100736.02
2019-06-08T02:12:27.011Z,100736.95
2019-06-08T02:17:31.294Z,100730.27
2019-06-08T02:22:34.880Z,100727.99
2019-06-08T02:27:38.197Z,100713.95
2019-06-08T02:32:41.085Z,100688.66
2019-06-08T02:37:44.580Z,100750.26
2019-06-08T02:42:47.149Z,100756.49
2019-06-08T02:47:50.007Z,100753.67
2019-06-08T02:52:52.916Z,100729.19
2019-06-08T02:57:56.696Z,100724.03
2019-06-08T03:03:00.173Z,100748.79
2019-06-08T03:08:04.357Z,100763.11
2019-06-08T03:13:08.924Z,100766.78
2019-06-08T03:18:12.126Z,100779.66
2019-06-08T03:23:15.359Z,100775.59
2019-06-08T03:28:18.875Z,100774.88
2019-06-08T03:33:22.256Z,100772.77
2019-06-08T03:38:24.861Z,100773.03
2019-06-08T03:43:28.036Z,100774.84
2019-06-08T03:48:31.693Z,100767.91
2019-06-08T03:53:35.739Z,100782.91
2019-06-08T03:58:40.523Z,100779.98
2019-06-08T04:03:46.034Z,100763.16
2019-06-08T04:08:49.977Z,100761.45
2019-06-08T04:13:53.480Z,100753.44
2019-06-08T04:18:56.475Z,100769.17
2019-06-08T04:23:59.810Z,100767.30
2019-06-08T04:29:03.025Z,100771.88
2019-06-08T04:34:05.932Z,100749.93
2019-06-08T04:39:09.218Z,100750.70
2019-06-08T04:44:12.536Z,100761.69
2019-06-08T04:49:15.536Z,100764.27
2019-06-08T04:54:18.529Z,100765.27
2019-06-08T04:59:21.494Z,100758.05
2019-06-08T05:04:24.431Z,100777.73
2019-06-08T05:09:27.719Z,100774.02
2019-06-08T05:14:30.923Z,100774.45
2019-06-08T05:19:34.277Z,100798.19
2019-06-08T05:24:39.481Z,100803.26
2019-06-08T05:29:43.246Z,100808.84
2019-06-08T05:34:47.589Z,100810.34
2019-06-08T05:39:51.161Z,100810.74
2019-06-08T05:44:54.535Z,100827.91
2019-06-08T05:49:57.431Z,100828.88
2019-06-08T05:55:01.009Z,100799.75
2019-06-08T06:00:09.246Z,100821.94
2019-06-08T06:05:11.107Z,100834.75
2019-06-08T06:10:14.374Z,100845.33
2019-06-08T06:15:18.619Z,100846.22
2019-06-08T06:20:21.893Z,100826.36
2019-06-08T06:25:25.224Z,100826.81
2019-06-08T06:30:28.903Z,100824.41
2019-06-08T06:35:31.751Z,100830.39
2019-06-08T06:40:35.095Z,100852.00
2019-06-08T06:45:38.304Z,100872.55
2019-06-08T06:50:42.184Z,100878.61
2019-06-08T06:55:45.468Z,100873.75
2019-06-08T07:00:49.460Z,100890.06
2019-06-08T07:05:54.043Z,100891.00
2019-06-08T07:10:58.005Z,100888.94
2019-06-08T07:16:17.159Z,100902.86
2019-06-08T07:21:06.090Z,100894.49
2019-06-08T07:26:09.613Z,100894.22
2019-06-08T07:31:13.129Z,100907.33
2019-06-08T07:36:18.045Z,100905.96
2019-06-08T07:41:21.581Z,100907.44
2019-06-08T07:46:24.887Z,100910.48
2019-06-08T07:51:28.508Z,100916.76
2019-06-08T07:56:31.807Z,100921.61
2019-06-08T08:01:36.559Z,100920.36
2019-06-08T08:06:39.616Z,100934.72
2019-06-08T08:11:42.232Z,100924.56
2019-06-08T08:16:45.467Z,100926.02
2019-06-08T08:21:51.888Z,100929.78
2019-06-08T08:26:55.026Z,100929.80
2019-06-08T08:32:00.637Z,100953.86
2019-06-08T08:37:07.126Z,100952.17
2019-06-08T08:42:10.852Z,100945.13
2019-06-08T08:47:14.167Z,100949.15
2019-06-08T08:52:17.648Z,100955.33
2019-06-08T08:57:20.664Z,100966.23
2019-06-08T09:02:23.998Z,100962.89
2019-06-08T09:07:27.576Z,100988.63
2019-06-08T09:12:31.345Z,100993.61
2019-06-08T09:17:34.752Z,101005.98
2019-06-08T09:22:51.900Z,101006.87
2019-06-08T09:27:41.561Z,101023.28
2019-06-08T09:32:47.590Z,101012.03
2019-06-08T09:37:50.393Z,101014.62
2019-06-08T09:42:59.134Z,101027.05
2019-06-08T09:48:01.864Z,101029.19
2019-06-08T09:53:22.342Z,101027.73
2019-06-08T09:58:11.861Z,101040.83
2019-06-08T10:03:14.641Z,101044.70
2019-06-08T10:08:20.190Z,101055.38
2019-06-08T10:13:23.077Z,101057.25
2019-06-08T10:18:28.360Z,101059.45
2019-06-08T10:23:34.350Z,101078.93
2019-06-08T10:28:38.887Z,101076.63
2019-06-08T10:33:42.366Z,101077.84
2019-06-08T10:38:48.027Z,101092.75
2019-06-08T10:43:51.056Z,101092.86
2019-06-08T10:48:53.822Z,101116.47
2019-06-08T10:53:57.956Z,101107.55
2019-06-08T10:59:03.500Z,101122.48
2019-06-08T11:04:07.242Z,101099.83
2019-06-08T11:09:14.323Z,101105.09
2019-06-08T11:14:22.593Z,101108.16
2019-06-08T11:19:26.528Z,101127.63
2019-06-08T11:24:31.290Z,101135.84
2019-06-08T11:29:34.674Z,101143.62
2019-06-08T11:34:38.058Z,101152.78
2019-06-08T11:39:40.291Z,101141.23
2019-06-08T11:44:43.902Z,101158.23
2019-06-08T11:49:49.709Z,101158.73
2019-06-08T11:54:51.700Z,101171.20
2019-06-08T11:59:58.350Z,101162.55
2019-06-08T12:05:01.741Z,101159.27
2019-06-08T12:10:06.385Z,101172.45
2019-06-08T12:15:13.180Z,101191.97
2019-06-08T12:20:18.035Z,101204.66
2019-06-08T12:25:21.602Z,101199.77
2019-06-08T12:30:26.505Z,101210.31
2019-06-08T12:35:30.103Z,101217.25
2019-06-08T12:40:33.433Z,101219.98
2019-06-08T12:45:38.099Z,101208.19
2019-06-08T12:50:40.995Z,101211.62
2019-06-08T12:55:44.603Z,101211.41
2019-06-08T13:00:48.271Z,101215.55
2019-06-08T13:05:53.512Z,101215.16
2019-06-08T13:10:57.483Z,101227.39
2019-06-08T13:16:01.954Z,101222.70
2019-06-08T13:21:16.673Z,101234.05
2019-06-08T13:26:15.085Z,101231.36
2019-06-08T13:31:21.842Z,101247.48
2019-06-08T13:36:26.252Z,101239.88
2019-06-08T13:41:29.995Z,101240.80
2019-06-08T13:46:33.399Z,101244.28
2019-06-08T13:51:38.384Z,101237.92
2019-06-08T13:56:41.136Z,101239.22
2019-06-08T14:01:44.711Z,101256.69
2019-06-08T14:06:50.542Z,101248.08
2019-06-08T14:11:53.104Z,101244.08
2019-06-08T14:16:58.655Z,101245.00
2019-06-08T14:22:03.356Z,101249.09
2019-06-08T14:27:08.203Z,101237.10
2019-06-08T14:32:11.861Z,101229.45
2019-06-08T14:37:15.219Z,101223.87
2019-06-08T14:42:24.661Z,101220.17
2019-06-08T14:47:24.813Z,101224.41
2019-06-08T14:52:30.740Z,101200.24
2019-06-08T14:57:33.403Z,101234.35
2019-06-08T15:02:37.941Z,101236.27
2019-06-08T15:07:41.457Z,101244.75
2019-06-08T15:12:44.725Z,101221.82
2019-06-08T15:17:48.380Z,101239.98
2019-06-08T15:22:53.319Z,101233.41
2019-06-08T15:28:00.643Z,101230.19
2019-06-08T15:33:02.447Z,101229.87
2019-06-08T15:38:08.172Z,101218.34
2019-06-08T15:43:11.453Z,101225.34
2019-06-08T15:48:14.606Z,101216.72
2019-06-08T15:53:18.390Z,101210.06
2019-06-08T15:58:22.597Z,101216.85
2019-06-08T16:03:27.323Z,101223.32
2019-06-08T16:08:32.210Z,101228.84
2019-06-08T16:13:35.433Z,101214.75
2019-06-08T16:18:38.742Z,101202.33
2019-06-08T16:23:42.136Z,101242.88
2019-06-08T16:28:45.967Z,101258.06
2019-06-08T16:33:49.269Z,101275.07
2019-06-08T16:38:52.999Z,101268.27
2019-06-08T16:43:56.679Z,101281.55
2019-06-08T16:49:00.099Z,101297.63
2019-06-08T16:54:03.389Z,101296.98
2019-06-08T16:59:06.840Z,101313.16
2019-06-08T17:04:10.819Z,101302.48
2019-06-08T17:09:13.872Z,101311.64
2019-06-08T17:14:17.204Z,101324.61
2019-06-08T17:19:20.577Z,101316.20
2019-06-08T17:24:24.253Z,101315.72
2019-06-08T17:29:27.608Z,101314.39
2019-06-08T17:34:34.940Z,101323.88
2019-06-08T17:39:40.049Z,101321.50
2019-06-08T17:44:43.874Z,101324.56
2019-06-08T17:49:47.850Z,101331.47
2019-06-08T17:54:51.502Z,101338.36
2019-06-08T17:59:57.579Z,101337.25
2019-06-08T18:05:00.670Z,101338.84
2019-06-08T18:10:07.185Z,101338.99
2019-06-08T18:15:10.915Z,101356.22
2019-06-08T18:20:17.551Z,101367.48
2019-06-08T18:25:20.034Z,101380.88
2019-06-08T18:30:24.789Z,101373.23
2019-06-08T18:35:28.899Z,101366.19
2019-06-08T18:40:31.897Z,101383.22
2019-06-08T18:45:39.517Z,101394.78
2019-06-08T18:50:42.122Z,101404.74
2019-06-08T18:55:46.966Z,101420.06
2019-06-08T19:00:51.616Z,101436.25
2019-06-08T19:05:55.517Z,101439.09
2019-06-08T19:10:58.542Z,101432.05
2019-06-08T19:16:02.118Z,101423.41
2019-06-08T19:21:08.535Z,101416.16
2019-06-08T19:26:12.183Z,101414.81
2019-06-08T19:31:17.610Z,101419.77
2019-06-08T19:36:20.834Z,101425.08
2019-06-08T19:41:24.209Z,101428.27
2019-06-08T19:46:27.582Z,101432.76
2019-06-08T19:51:31.141Z,101446.48
2019-06-08T19:56:33.891Z,101447.45
2019-06-08T20:01:37.909Z,101448.98
2019-06-08T20:06:41.328Z,101447.52
2019-06-08T20:11:49.427Z,101443.55
2019-06-08T20:16:50.925Z,101455.48
2019-06-08T20:21:54.486Z,101459.66
2019-06-08T20:26:57.870Z,101464.13
2019-06-08T20:32:01.656Z,101456.23
2019-06-08T20:37:07.947Z,101462.58
2019-06-08T20:42:12.034Z,101468.81
2019-06-08T20:47:17.894Z,101464.85
2019-06-08T20:52:21.067Z,101472.91
2019-06-08T20:57:24.705Z,101478.91
2019-06-08T21:02:28.580Z,101476.09
2019-06-08T21:07:32.240Z,101489.78
2019-06-08T21:12:37.952Z,101492.98
2019-06-08T21:17:41.222Z,101491.03
2019-06-08T21:22:44.999Z,101484.62
2019-06-08T21:27:51.086Z,101496.93
2019-06-08T21:32:56.883Z,101504.98
2019-06-08T21:38:01.319Z,101503.16
2019-06-08T21:43:09.040Z,101509.13
2019-06-08T21:48:12.358Z,101507.66
2019-06-08T21:53:17.991Z,101503.06
2019-06-08T21:58:21.297Z,101513.52
2019-06-08T22:03:24.470Z,101510.66
2019-06-08T22:08:27.060Z,101522.23
2019-06-08T22:13:30.414Z,101526.80
2019-06-08T22:18:33.668Z,101526.99
2019-06-08T22:23:36.918Z,101521.95
2019-06-08T22:28:39.775Z,101521.92
2019-06-08T22:33:43.299Z,101545.55
2019-06-08T22:38:47.740Z,101540.25
2019-06-08T22:43:51.188Z,101543.88
2019-06-08T22:48:55.342Z,101548.77
2019-06-08T22:54:02.036Z,101544.93
2019-06-08T22:59:06.746Z,101557.97
2019-06-08T23:04:09.724Z,101559.04
2019-06-08T23:09:13.372Z,101560.77
2019-06-08T23:14:18.040Z,101568.13
2019-06-08T23:19:20.931Z,101557.19
2019-06-08T23:24:24.305Z,101559.84
2019-06-08T23:29:27.426Z,101568.39
2019-06-08T23:34:30.511Z,101558.33
2019-06-08T23:39:33.568Z,101565.70
2019-06-08T23:44:37.751Z,101564.48
2019-06-08T23:49:41.475Z,101572.98
2019-06-08T23:54:47.656Z,101562.48
2019-06-08T23:59:50.495Z,101572.97
